Time;durP1;ratioP1;P1;durP2;ratioP2;P2;SDS_P1;SDS_P2;PMS_P1;PMS_P2;Temp;Humidity;BMP_temperature;BMP_pressure;BME280_temperature;BME280_humidity;BME280_pressure;Samples;Min_cycle;Max_cycle;Signal;HPM_P1;HPM_P2
2022/10/25 00:01:55;;;;;;;15.37;3.10;;;;;;;11.32;100.00;100406.56;7391603;19;20452;-47
2022/10/25 00:04:25;;;;;;;8.23;3.20;;;;;;;11.29;100.00;100411.59;7391845;19;20999;-49
2022/10/25 00:06:54;;;;;;;13.27;3.33;;;;;;;11.25;100.00;100411.47;7392961;19;20752;-52
2022/10/25 00:09:24;;;;;;;16.10;4.30;;;;;;;11.20;100.00;100404.47;7390590;19;20377;-51
2022/10/25 00:11:54;;;;;;;11.30;3.10;;;;;;;11.19;100.00;100405.25;7391053;19;20471;-49
2022/10/25 00:14:26;;;;;;;15.13;3.70;;;;;;;11.16;100.00;100412.03;7393662;19;20406;-51
2022/10/25 00:16:55;;;;;;;11.40;3.40;;;;;;;11.12;100.00;100410.19;7394150;19;20854;-51
2022/10/25 00:19:25;;;;;;;11.93;3.80;;;;;;;11.06;100.00;100416.00;7390151;19;20943;-49
2022/10/25 00:21:54;;;;;;;11.40;3.50;;;;;;;11.07;100.00;100415.16;7387127;19;20771;-52
2022/10/25 00:24:24;;;;;;;11.20;2.90;;;;;;;11.06;100.00;100423.75;7390275;19;20969;-53
2022/10/25 00:26:53;;;;;;;17.27;3.93;;;;;;;11.06;100.00;100421.16;7392573;19;20443;-54
2022/10/25 00:29:25;;;;;;;7.13;3.10;;;;;;;11.07;100.00;100428.09;7390762;19;20404;-47
2022/10/25 00:31:55;;;;;;;12.40;3.60;;;;;;;11.03;100.00;100421.94;7388442;19;20424;-54
2022/10/25 00:34:25;;;;;;;10.47;4.13;;;;;;;11.06;100.00;100423.75;7387617;19;20725;-48
2022/10/25 00:36:57;;;;;;;9.30;4.00;;;;;;;11.05;100.00;100422.00;7389623;19;20421;-51
2022/10/25 00:39:27;;;;;;;14.40;4.00;;;;;;;11.03;100.00;100419.34;7387611;19;20420;-51
2022/10/25 00:41:56;;;;;;;12.30;3.90;;;;;;;11.01;100.00;100412.38;7389241;19;20402;-46
2022/10/25 00:45:00;;;;;;;9.73;3.80;;;;;;;11.00;100.00;100413.22;7387257;19;20389;-53
2022/10/25 00:47:43;;;;;;;12.73;4.30;;;;;;;10.98;100.00;100415.72;7388481;19;20431;-47
2022/10/25 00:50:19;;;;;;;10.27;4.53;;;;;;;10.96;100.00;100419.97;7387757;19;20441;-48
2022/10/25 00:52:50;;;;;;;12.60;4.13;;;;;;;10.96;100.00;100419.09;7389785;19;20440;-47
2022/10/25 00:55:22;;;;;;;19.10;5.33;;;;;;;10.92;100.00;100411.25;7387532;19;20421;-49
2022/10/25 00:57:55;;;;;;;18.93;5.27;;;;;;;10.88;100.00;100411.94;7390521;19;20392;-48
2022/10/25 01:00:28;;;;;;;19.63;4.70;;;;;;;10.92;100.00;100411.25;7387137;19;20804;-51
2022/10/25 01:02:58;;;;;;;12.90;4.73;;;;;;;10.91;100.00;100416.34;7384666;19;21375;-55
2022/10/25 01:05:27;;;;;;;15.13;4.10;;;;;;;10.89;100.00;100426.63;7391191;19;20453;-47
2022/10/25 01:07:57;;;;;;;12.20;4.90;;;;;;;10.87;100.00;100425.69;7395496;19;21238;-53
2022/10/25 01:10:27;;;;;;;16.63;5.47;;;;;;;10.85;100.00;100436.78;7386652;19;20403;-49
2022/10/25 01:12:57;;;;;;;13.13;5.83;;;;;;;10.87;100.00;100430.84;7390737;19;20447;-46
2022/10/25 01:15:32;;;;;;;14.23;4.40;;;;;;;10.87;100.00;100433.44;7390701;19;20412;-51
2022/10/25 01:18:08;;;;;;;13.93;4.67;;;;;;;10.90;100.00;100424.91;7391432;19;20429;-52
2022/10/25 01:20:52;;;;;;;11.63;4.43;;;;;;;10.92;100.00;100434.47;7391044;19;20993;-53
2022/10/25 01:23:41;;;;;;;13.70;5.97;;;;;;;10.96;100.00;100427.72;7396224;19;20424;-48
2022/10/25 01:26:28;;;;;;;10.27;4.77;;;;;;;10.96;100.00;100432.88;7396095;19;20420;-52
2022/10/25 01:29:25;;;;;;;18.53;5.60;;;;;;;10.99;100.00;100434.69;7398821;19;20416;-52
2022/10/25 01:31:59;;;;;;;12.13;4.67;;;;;;;11.03;100.00;100436.56;7396559;19;20441;-46
2022/10/25 01:34:34;;;;;;;10.07;4.70;;;;;;;11.04;100.00;100434.00;7396365;19;20391;-49
2022/10/25 01:37:07;;;;;;;11.80;4.70;;;;;;;11.07;100.00;100441.88;7398307;19;20420;-51
2022/10/25 01:39:40;;;;;;;11.63;5.27;;;;;;;11.09;100.00;100444.53;7396323;19;20392;-47
2022/10/25 01:42:12;;;;;;;17.30;4.70;;;;;;;11.15;100.00;100452.47;7397228;19;20427;-51
2022/10/25 01:44:49;;;;;;;12.80;5.37;;;;;;;11.17;100.00;100453.41;7395663;19;20395;-53
2022/10/25 01:47:23;;;;;;;12.10;4.37;;;;;;;11.19;100.00;100458.63;7398533;19;20384;-53
2022/10/25 01:49:58;;;;;;;13.90;4.30;;;;;;;11.25;100.00;100453.66;7395760;19;20427;-47
2022/10/25 01:52:28;;;;;;;17.20;4.60;;;;;;;11.30;100.00;100461.56;7398597;19;20951;-49
2022/10/25 01:54:58;;;;;;;13.43;4.53;;;;;;;11.31;100.00;100469.38;7395451;19;20788;-49
2022/10/25 01:57:48;;;;;;;14.50;4.93;;;;;;;11.37;100.00;100480.75;7398289;19;20420;-47
2022/10/25 02:00:19;;;;;;;18.20;5.23;;;;;;;11.36;100.00;100482.44;7395888;19;20443;-47
2022/10/25 02:03:11;;;;;;;17.40;4.70;;;;;;;11.36;100.00;100492.78;7396122;19;20456;-49
2022/10/25 02:05:50;;;;;;;11.63;4.50;;;;;;;11.35;100.00;100493.59;7394726;19;20431;-46
2022/10/25 02:08:27;;;;;;;10.43;4.53;;;;;;;11.34;100.00;100495.28;7397294;19;20401;-49
2022/10/25 02:11:03;;;;;;;17.93;5.30;;;;;;;11.34;100.00;100500.47;7390123;19;20429;-50
2022/10/25 02:13:34;;;;;;;10.83;4.43;;;;;;;11.36;100.00;100510.84;7398701;19;20968;-47
2022/10/25 02:16:07;;;;;;;17.33;4.40;;;;;;;11.36;100.00;100513.44;7394017;19;20413;-47
2022/10/25 02:18:43;;;;;;;15.80;5.17;;;;;;;11.38;100.00;100516.94;7399420;19;20413;-46
2022/10/25 02:21:14;;;;;;;18.83;6.00;;;;;;;11.35;100.00;100522.03;7392576;19;20439;-46
2022/10/25 02:23:44;;;;;;;15.83;4.63;;;;;;;11.34;100.00;100520.25;7395169;19;21170;-50
2022/10/25 02:26:14;;;;;;;15.80;5.23;;;;;;;11.32;100.00;100527.06;7394559;19;20393;-46
2022/10/25 02:28:43;;;;;;;19.87;5.60;;;;;;;11.29;100.00;100525.25;7397605;19;20417;-48
2022/10/25 02:31:16;;;;;;;17.40;6.30;;;;;;;11.26;100.00;100526.84;7393624;19;20421;-47
2022/10/25 02:33:49;;;;;;;21.53;6.90;;;;;;;11.23;100.00;100531.91;7393146;19;20417;-48
2022/10/25 02:36:22;;;;;;;16.13;5.60;;;;;;;11.18;100.00;100537.78;7394354;19;20975;-49
2022/10/25 02:38:52;;;;;;;11.70;5.40;;;;;;;11.17;100.00;100540.31;7396634;19;20373;-46
2022/10/25 02:41:23;;;;;;;19.40;6.07;;;;;;;11.18;100.00;100539.50;7391868;19;20476;-46
2022/10/25 02:43:53;;;;;;;13.87;5.53;;;;;;;11.16;100.00;100539.44;7395904;19;20397;-47
2022/10/25 02:46:23;;;;;;;15.73;6.30;;;;;;;11.17;100.00;100543.78;7393227;19;20429;-46
2022/10/25 02:48:55;;;;;;;16.17;7.23;;;;;;;11.18;100.00;100542.09;7396075;19;20419;-47
2022/10/25 02:51:25;;;;;;;16.50;7.20;;;;;;;11.14;100.00;100538.53;7392326;19;20429;-52
2022/10/25 02:53:54;;;;;;;21.30;7.60;;;;;;;11.15;100.00;100542.84;7395508;19;20416;-49
2022/10/25 02:56:24;;;;;;;20.67;7.40;;;;;;;11.11;100.00;100537.50;7393105;19;20412;-47
2022/10/25 02:58:57;;;;;;;21.73;7.60;;;;;;;11.11;100.00;100543.56;7395197;19;20394;-48
2022/10/25 03:01:27;;;;;;;17.60;7.20;;;;;;;11.12;100.00;100545.31;7390919;19;20960;-47
2022/10/25 03:03:59;;;;;;;15.33;7.60;;;;;;;11.15;100.00;100542.84;7395650;19;20460;-47
2022/10/25 03:06:28;;;;;;;22.03;7.70;;;;;;;11.13;100.00;100541.91;7393046;19;20424;-49
2022/10/25 03:08:58;;;;;;;22.63;7.10;;;;;;;11.09;100.00;100555.53;7395393;19;20417;-48
2022/10/25 03:11:27;;;;;;;18.20;8.30;;;;;;;11.10;100.00;100551.25;7392288;19;20460;-51
2022/10/25 03:13:57;;;;;;;20.33;9.60;;;;;;;11.10;100.00;100548.66;7394864;19;20415;-49
2022/10/25 03:16:27;;;;;;;28.00;9.80;;;;;;;11.09;100.00;100547.78;7392276;19;20401;-50
2022/10/25 03:19:00;;;;;;;20.03;8.37;;;;;;;11.11;100.00;100551.31;7395135;19;20390;-48
2022/10/25 03:21:30;;;;;;;26.80;9.17;;;;;;;11.13;100.00;100541.91;7390355;19;20432;-49
2022/10/25 03:23:59;;;;;;;21.50;8.53;;;;;;;11.13;100.00;100552.22;7394665;19;21358;-46
2022/10/25 03:26:29;;;;;;;19.60;8.73;;;;;;;11.17;100.00;100555.78;7392167;19;20407;-53
2022/10/25 03:28:58;;;;;;;20.60;9.07;;;;;;;11.19;100.00;100564.50;7395123;19;20789;-48
2022/10/25 03:31:28;;;;;;;18.43;8.50;;;;;;;11.19;100.00;100555.03;7391757;19;20426;-49
2022/10/25 03:34:00;;;;;;;20.90;8.90;;;;;;;11.21;100.00;100566.31;7394215;19;20394;-48
2022/10/25 03:36:29;;;;;;;22.70;8.30;;;;;;;11.23;100.00;100578.41;7391564;19;20525;-48
2022/10/25 03:38:59;;;;;;;21.00;8.60;;;;;;;11.24;100.00;100580.16;7394249;19;20409;-47
2022/10/25 03:41:28;;;;;;;16.63;9.10;;;;;;;11.21;100.00;100576.66;7390533;19;20427;-51
2022/10/25 03:43:58;;;;;;;23.10;9.53;;;;;;;11.26;100.00;100588.81;7393766;19;20436;-46
2022/10/25 03:46:27;;;;;;;17.90;8.00;;;;;;;11.31;100.00;100582.13;7390759;19;20421;-46
2022/10/25 03:48:59;;;;;;;25.73;8.80;;;;;;;11.34;100.00;100587.41;7393801;19;20435;-47
2022/10/25 03:51:29;;;;;;;19.00;9.93;;;;;;;11.37;100.00;100587.50;7389943;19;20801;-47
2022/10/25 03:53:58;;;;;;;24.20;9.60;;;;;;;11.38;100.00;100589.28;7393348;19;20796;-46
2022/10/25 03:56:28;;;;;;;24.10;9.20;;;;;;;11.44;100.00;100589.50;7392187;19;20975;-47
2022/10/25 03:58:57;;;;;;;26.37;9.33;;;;;;;11.45;100.00;100593.81;7393482;19;20387;-47
2022/10/25 04:01:27;;;;;;;25.93;8.93;;;;;;;11.47;100.00;100599.94;7389660;19;20460;-47
2022/10/25 04:03:59;;;;;;;24.40;9.60;;;;;;;11.49;100.00;100602.59;7395053;19;20730;-45
2022/10/25 04:06:29;;;;;;;24.27;9.73;;;;;;;11.54;100.00;100611.34;7391044;19;20428;-47
2022/10/25 04:08:59;;;;;;;17.40;8.93;;;;;;;11.57;100.00;100611.47;7393446;19;20426;-46
2022/10/25 04:11:28;;;;;;;18.63;9.33;;;;;;;11.61;100.00;100617.63;7390131;19;20424;-46
2022/10/25 04:13:58;;;;;;;20.23;9.50;;;;;;;11.64;100.00;100624.63;7393200;19;20419;-49
2022/10/25 04:16:28;;;;;;;18.37;8.97;;;;;;;11.64;100.00;100624.63;7390020;19;20424;-48
2022/10/25 04:19:00;;;;;;;21.30;8.63;;;;;;;11.65;100.00;100629.84;7394238;19;20386;-48
2022/10/25 04:21:30;;;;;;;20.53;9.50;;;;;;;11.69;100.00;100636.88;7389166;19;21016;-49
2022/10/25 04:24:00;;;;;;;22.50;8.53;;;;;;;11.71;100.00;100644.69;7392548;19;20780;-51
2022/10/25 04:26:33;;;;;;;19.83;9.83;;;;;;;11.68;100.00;100655.78;7389921;19;20420;-46
2022/10/25 04:29:03;;;;;;;22.70;9.73;;;;;;;11.68;100.00;100653.19;7392583;19;20489;-46
2022/10/25 04:31:33;;;;;;;23.07;8.90;;;;;;;11.65;100.00;100659.97;7389845;19;20444;-48
2022/10/25 04:34:05;;;;;;;17.57;8.10;;;;;;;11.59;100.00;100660.66;7393018;19;20432;-46
2022/10/25 04:36:35;;;;;;;20.40;9.07;;;;;;;11.57;100.00;100662.28;7389522;19;20407;-46
2022/10/25 04:39:05;;;;;;;32.33;9.47;;;;;;;11.55;100.00;100669.09;7392299;19;20415;-47
2022/10/25 04:41:34;;;;;;;20.63;8.77;;;;;;;11.51;100.00;100667.22;7388629;19;20433;-48
2022/10/25 04:44:04;;;;;;;19.93;9.17;;;;;;;11.52;100.00;100675.03;7392166;19;20398;-48
2022/10/25 04:46:33;;;;;;;20.50;8.93;;;;;;;11.51;100.00;100682.72;7389240;19;20441;-48
2022/10/25 04:49:05;;;;;;;17.50;9.43;;;;;;;11.52;100.00;100676.72;7392275;19;21233;-50
2022/10/25 04:51:35;;;;;;;21.37;10.03;;;;;;;11.47;100.00;100677.44;7388953;19;20967;-50
2022/10/25 04:54:05;;;;;;;20.77;8.27;;;;;;;11.45;100.00;100684.25;7391460;19;20966;-46
2022/10/25 04:56:35;;;;;;;22.13;10.20;;;;;;;11.50;100.00;100680.97;7387348;19;20424;-45
2022/10/25 04:59:04;;;;;;;22.07;8.10;;;;;;;11.54;100.00;100686.28;7392163;19;20415;-46
2022/10/25 05:01:35;;;;;;;18.60;8.00;;;;;;;11.57;100.00;100677.78;7387409;19;20431;-51
2022/10/25 05:04:07;;;;;;;16.37;9.37;;;;;;;11.60;100.00;100688.22;7391864;19;20447;-47
2022/10/25 05:06:36;;;;;;;19.90;8.93;;;;;;;11.63;100.00;100690.06;7388842;19;20407;-49
2022/10/25 05:09:06;;;;;;;25.70;10.03;;;;;;;11.61;100.00;100698.63;7391140;19;20377;-50
2022/10/25 05:11:35;;;;;;;16.70;8.93;;;;;;;11.63;100.00;100702.97;7387888;19;21329;-51
2022/10/25 05:14:25;;;;;;;19.87;9.70;;;;;;;11.65;100.00;100701.31;7387695;19;20424;-46
2022/10/25 05:16:54;;;;;;;21.10;9.63;;;;;;;11.63;100.00;100696.09;7390305;19;20388;-50
2022/10/25 05:19:27;;;;;;;22.77;8.93;;;;;;;11.62;100.00;100699.50;7390893;19;20394;-48
2022/10/25 05:21:57;;;;;;;25.30;9.77;;;;;;;11.64;100.00;100700.41;7388284;19;20453;-47
2022/10/25 05:24:27;;;;;;;29.10;10.37;;;;;;;11.64;100.00;100699.56;7389259;19;20389;-46
2022/10/25 05:26:56;;;;;;;14.47;8.90;;;;;;;11.63;100.00;100696.09;7390613;19;20995;-49
2022/10/25 05:29:25;;;;;;;23.37;10.37;;;;;;;11.63;100.00;100688.34;7387995;19;20382;-50
2022/10/25 05:31:55;;;;;;;17.90;9.90;;;;;;;11.61;100.00;100700.31;7389540;19;20461;-46
2022/10/25 05:34:27;;;;;;;22.90;9.60;;;;;;;11.60;100.00;100703.75;7387761;19;20952;-46
2022/10/25 05:36:57;;;;;;;19.67;10.17;;;;;;;11.61;100.00;100710.66;7389711;19;20774;-47
2022/10/25 05:39:26;;;;;;;21.43;10.17;;;;;;;11.61;100.00;100701.22;7387906;19;20417;-47
2022/10/25 05:41:57;;;;;;;23.40;10.27;;;;;;;11.61;100.00;100702.91;7388786;19;20409;-47
2022/10/25 05:44:27;;;;;;;28.43;11.03;;;;;;;11.64;100.00;100705.59;7387498;19;20413;-51
2022/10/25 05:46:56;;;;;;;22.00;10.60;;;;;;;11.64;100.00;100710.75;7390428;19;20394;-50
2022/10/25 05:49:30;;;;;;;21.10;9.63;;;;;;;11.62;100.00;100717.59;7387903;19;20415;-49
2022/10/25 05:51:59;;;;;;;22.83;9.93;;;;;;;11.65;100.00;100716.81;7388622;19;20402;-47
2022/10/25 05:54:29;;;;;;;24.30;10.13;;;;;;;11.63;100.00;100714.19;7386729;19;20391;-48
2022/10/25 05:56:59;;;;;;;24.00;10.83;;;;;;;11.65;100.00;100724.56;7392113;19;20437;-49
2022/10/25 05:59:28;;;;;;;24.27;10.47;;;;;;;11.63;100.00;100719.34;7387578;19;20393;-47
2022/10/25 06:01:58;;;;;;;22.93;9.70;;;;;;;11.67;100.00;100716.06;7391931;19;21107;-46
2022/10/25 06:04:30;;;;;;;29.03;11.67;;;;;;;11.64;100.00;100726.25;7387219;19;20393;-51
2022/10/25 06:07:00;;;;;;;24.23;9.87;;;;;;;11.65;100.00;100716.81;7393802;19;20742;-53
2022/10/25 06:09:29;;;;;;;18.00;9.83;;;;;;;11.66;100.00;100718.56;7395075;19;20384;-50
2022/10/25 06:11:59;;;;;;;26.67;11.10;;;;;;;11.66;100.00;100718.56;7395881;19;20406;-50
2022/10/25 06:14:30;;;;;;;20.80;10.73;;;;;;;11.67;100.00;100726.41;7394040;19;20405;-54
2022/10/25 06:16:59;;;;;;;31.50;10.83;;;;;;;11.67;100.00;100728.97;7396592;19;20862;-50
2022/10/25 06:19:32;;;;;;;25.00;12.53;;;;;;;11.70;100.00;100726.50;7397830;19;20385;-45
2022/10/25 06:22:01;;;;;;;21.37;10.13;;;;;;;11.68;100.00;100733.31;7394504;19;20991;-46
2022/10/25 06:24:31;;;;;;;25.63;11.60;;;;;;;11.69;100.00;100723.88;7394800;19;20783;-46
2022/10/25 06:27:01;;;;;;;23.63;12.20;;;;;;;11.63;100.00;100726.22;7396258;19;20385;-47
2022/10/25 06:29:30;;;;;;;26.93;13.37;;;;;;;11.57;100.00;100725.19;7393876;19;20950;-47
2022/10/25 06:32:00;;;;;;;24.30;12.20;;;;;;;11.48;100.00;100730.88;7395978;19;20428;-48
2022/10/25 06:34:32;;;;;;;27.13;13.03;;;;;;;11.47;100.00;100731.72;7393465;19;20414;-48
2022/10/25 06:37:01;;;;;;;29.97;13.50;;;;;;;11.46;100.00;100722.19;7395773;19;20420;-49
2022/10/25 06:39:31;;;;;;;22.00;12.23;;;;;;;11.45;100.00;100723.00;7395560;19;20931;-53
2022/10/25 06:42:01;;;;;;;34.23;13.57;;;;;;;11.48;100.00;100709.31;7394657;19;20415;-51
2022/10/25 06:44:30;;;;;;;28.93;12.40;;;;;;;11.46;100.00;100701.53;7391385;19;20406;-49
2022/10/25 06:47:01;;;;;;;28.23;13.50;;;;;;;11.50;100.00;100699.03;7395661;19;20393;-48
2022/10/25 06:49:48;;;;;;;34.10;14.00;;;;;;;11.50;100.00;100692.19;7393738;19;20786;-47
2022/10/25 06:52:18;;;;;;;29.00;14.30;;;;;;;11.51;100.00;100691.34;7395324;19;20935;-48
2022/10/25 06:54:47;;;;;;;28.23;13.80;;;;;;;11.54;100.00;100691.47;7393072;19;20767;-50
2022/10/25 06:57:17;;;;;;;35.67;14.53;;;;;;;11.55;100.00;100682.00;7396195;19;20926;-47
2022/10/25 06:59:47;;;;;;;30.63;13.53;;;;;;;11.55;100.00;100680.31;7395491;19;20487;-49
2022/10/25 07:02:17;;;;;;;26.47;14.90;;;;;;;11.57;100.00;100680.34;7393454;19;20430;-47
2022/10/25 07:04:49;;;;;;;26.63;14.70;;;;;;;11.57;100.00;100673.50;7388222;19;20778;-55
2022/10/25 07:07:18;;;;;;;28.80;14.00;;;;;;;11.60;100.00;100675.31;7396134;19;20387;-47
2022/10/25 07:09:48;;;;;;;32.57;13.17;;;;;;;11.59;100.00;100681.31;7390996;19;20949;-51
2022/10/25 07:12:18;;;;;;;27.30;14.00;;;;;;;11.60;100.00;100685.66;7393580;19;20444;-49
2022/10/25 07:14:47;;;;;;;31.10;14.60;;;;;;;11.59;100.00;100684.75;7391261;19;20391;-53
2022/10/25 07:17:18;;;;;;;31.90;15.40;;;;;;;11.64;100.00;100686.63;7394607;19;20385;-50
2022/10/25 07:19:50;;;;;;;28.80;15.30;;;;;;;11.67;100.00;100694.50;7393804;19;20401;-54
2022/10/25 07:22:20;;;;;;;24.77;13.70;;;;;;;11.68;100.00;100686.81;7392826;19;20437;-49
2022/10/25 07:24:50;;;;;;;25.73;14.93;;;;;;;11.73;100.00;100689.53;7389056;19;20429;-47
2022/10/25 07:27:19;;;;;;;29.27;15.90;;;;;;;11.77;100.00;100693.13;7394662;19;20384;-47
2022/10/25 07:29:49;;;;;;;25.30;15.00;;;;;;;11.78;100.00;100693.19;7391133;19;20808;-47
2022/10/25 07:32:18;;;;;;;24.97;14.37;;;;;;;11.79;100.00;100688.91;7392658;19;20420;-49
2022/10/25 07:34:50;;;;;;;22.93;13.40;;;;;;;11.82;100.00;100694.16;7390317;19;20427;-47
2022/10/25 07:37:20;;;;;;;31.53;14.60;;;;;;;11.82;100.00;100697.63;7391110;19;20393;-47
2022/10/25 07:39:50;;;;;;;28.07;15.23;;;;;;;11.84;100.00;100711.50;7385643;19;20798;-54
2022/10/25 07:42:19;;;;;;;26.97;15.13;;;;;;;11.87;100.00;100702.97;7392308;19;20801;-52
2022/10/25 07:44:49;;;;;;;33.03;14.83;;;;;;;11.94;100.00;100710.09;7390258;19;20387;-54
2022/10/25 07:47:18;;;;;;;32.00;15.53;;;;;;;11.97;100.00;100715.41;7396901;19;20419;-51
2022/10/25 07:49:50;;;;;;;34.20;16.17;;;;;;;12.04;100.00;100711.34;7389819;19;20404;-55
2022/10/25 07:52:20;;;;;;;33.30;17.27;;;;;;;12.11;100.00;100718.50;7391716;19;20408;-49
2022/10/25 07:54:49;;;;;;;36.37;17.57;;;;;;;12.14;100.00;100734.13;7389766;19;20413;-48
2022/10/25 07:57:19;;;;;;;28.90;15.53;;;;;;;12.15;100.00;100737.56;7392441;19;20399;-53
2022/10/25 07:59:48;;;;;;;26.40;15.07;;;;;;;12.18;100.00;100736.81;7391465;19;20408;-55
2022/10/25 08:02:18;;;;;;;30.47;15.70;;;;;;;12.20;100.00;100748.97;7391308;19;20773;-53
2022/10/25 08:04:56;;;;;;;33.30;15.70;;;;;;;12.19;100.00;100751.53;7388016;19;20740;-54
2022/10/25 08:07:26;;;;;;;31.73;13.90;;;;;;;12.19;100.00;100757.56;7391972;19;20421;-54
2022/10/25 08:09:56;;;;;;;28.17;14.50;;;;;;;12.20;100.00;100763.63;7389220;19;20418;-51
2022/10/25 08:12:25;;;;;;;27.47;15.93;;;;;;;12.23;100.00;100769.78;7390758;19;20412;-51
2022/10/25 08:14:55;;;;;;;29.23;13.97;;;;;;;12.27;100.00;100771.63;7388126;19;20933;-54
2022/10/25 08:17:24;;;;;;;25.77;14.60;;;;;;;12.26;100.00;100772.47;7392026;19;20377;-55
2022/10/25 08:19:56;;;;;;;31.23;15.40;;;;;;;12.33;100.00;100780.44;7388810;19;20419;-52
2022/10/25 08:22:26;;;;;;;25.30;14.17;;;;;;;12.37;100.00;100782.31;7393605;19;20439;-52
2022/10/25 08:24:55;;;;;;;32.17;15.87;;;;;;;12.33;100.00;100790.78;7387761;19;20458;-54
2022/10/25 08:27:25;;;;;;;31.13;14.73;;;;;;;12.34;100.00;100797.72;7393031;19;20391;-54
2022/10/25 08:29:54;;;;;;;31.60;13.90;;;;;;;12.39;100.00;100811.69;7385926;19;20405;-52
2022/10/25 08:32:24;;;;;;;24.97;14.00;;;;;;;12.48;100.00;100813.72;7390781;19;20425;-52
2022/10/25 08:34:53;;;;;;;32.37;14.53;;;;;;;12.51;100.00;100822.47;7387681;19;20387;-56
2022/10/25 08:37:25;;;;;;;20.83;12.80;;;;;;;12.54;100.00;100825.19;7391630;19;20374;-54
2022/10/25 08:39:55;;;;;;;23.63;13.17;;;;;;;12.57;100.00;100824.41;7389116;19;20395;-50
2022/10/25 08:42:31;;;;;;;33.70;13.33;;;;;;;12.62;100.00;100834.94;7390935;19;20434;-54
2022/10/25 08:45:03;;;;;;;23.77;13.93;;;;;;;12.63;100.00;100836.69;7387995;19;20402;-51
2022/10/25 08:47:35;;;;;;;27.87;13.23;;;;;;;12.68;100.00;100845.50;7391583;19;20433;-48
2022/10/25 08:50:07;;;;;;;27.93;13.20;;;;;;;12.68;100.00;100854.13;7389222;19;20421;-52
2022/10/25 08:52:42;;;;;;;20.30;12.03;;;;;;;12.79;100.00;100866.56;7390322;19;20424;-50
2022/10/25 08:55:16;;;;;;;20.60;11.87;;;;;;;12.81;100.00;100867.47;7388312;19;20410;-50
2022/10/25 08:57:48;;;;;;;29.60;13.00;;;;;;;12.79;100.00;100880.41;7390833;19;20403;-54
2022/10/25 09:00:21;;;;;;;21.47;12.47;;;;;;;12.76;100.00;100888.03;7387403;19;20486;-51
2022/10/25 09:02:54;;;;;;;26.67;13.00;;;;;;;12.81;100.00;100893.38;7389555;19;20415;-51
2022/10/25 09:05:36;;;;;;;22.93;11.30;;;;;;;12.78;100.00;100903.66;7389741;19;20917;-54
2022/10/25 09:08:23;;;;;;;18.07;12.07;;;;;;;12.78;100.00;100912.28;7390163;19;20407;-53
2022/10/25 09:10:56;;;;;;;21.13;11.00;;;;;;;12.86;100.00;100906.50;7382739;19;20421;-53
2022/10/25 09:13:34;;;;;;;24.63;12.30;;;;;;;12.94;100.00;100912.81;7389675;19;20438;-54
2022/10/25 09:16:31;;;;;;;21.33;10.00;;;;;;;12.94;100.00;100913.72;7387132;19;20431;-48
2022/10/25 09:19:00;;;;;;;19.83;10.10;;;;;;;13.05;100.00;100919.25;7390173;19;20384;-52
2022/10/25 09:21:39;;;;;;;14.63;10.03;;;;;;;13.05;100.00;100924.44;7387424;19;20441;-54
2022/10/25 09:24:18;;;;;;;41.47;16.23;;;;;;;13.15;100.00;100920.44;7394417;19;20450;-53
2022/10/25 09:26:55;;;;;;;23.00;9.50;;;;;;;13.20;100.00;100930.97;7386087;19;20418;-53
2022/10/25 09:29:29;;;;;;;54.80;21.87;;;;;;;13.29;100.00;100933.88;7387479;19;20448;-44
2022/10/25 09:32:00;;;;;;;22.67;9.40;;;;;;;13.28;100.00;100931.22;7388788;19;20429;-54
2022/10/25 09:34:33;;;;;;;53.00;19.50;;;;;;;13.28;100.00;100941.59;7385366;19;20400;-52
2022/10/25 09:37:13;;;;;;;29.63;12.80;;;;;;;13.33;100.00;100940.03;7389445;19;20392;-49
2022/10/25 09:39:47;;;;;;;35.57;10.67;;;;;;;13.26;100.00;100944.13;7392627;19;20396;-47
2022/10/25 09:42:22;;;;;;;14.30;8.53;;;;;;;13.33;100.00;100943.50;7393487;19;20421;-53
2022/10/25 09:44:53;;;;;;;20.30;9.77;;;;;;;13.38;100.00;100946.22;7390736;19;20534;-52
2022/10/25 09:47:31;;;;;;;29.60;10.50;;;;;;;13.24;100.00;100950.97;7397059;19;20392;-52
2022/10/25 09:50:03;;;;;;;37.03;12.17;;;;;;;13.28;100.00;100950.22;7394470;19;20403;-54
2022/10/25 09:52:38;;;;;;;28.20;11.63;;;;;;;13.26;100.00;100956.19;7396805;19;20448;-53
2022/10/25 09:55:27;;;;;;;15.57;7.00;;;;;;;13.26;100.00;100959.66;7394574;19;20434;-47
2022/10/25 09:57:57;;;;;;;19.90;7.30;;;;;;;13.33;100.00;100968.53;7400516;19;20952;-50
2022/10/25 10:00:26;;;;;;;23.33;8.27;;;;;;;13.33;100.00;100960.78;7388632;19;20431;-53
2022/10/25 10:02:56;;;;;;;38.10;13.97;;;;;;;13.32;100.00;100959.88;7393501;19;20419;-53
2022/10/25 10:05:26;;;;;;;39.60;16.23;;;;;;;13.29;100.00;100962.38;7392081;19;20460;-46
2022/10/25 10:07:55;;;;;;;23.63;10.60;;;;;;;13.42;100.00;100958.47;7399155;19;20417;-51
2022/10/25 10:10:30;;;;;;;48.37;16.90;;;;;;;13.47;100.00;100969.00;7391862;19;20405;-51
2022/10/25 10:13:01;;;;;;;24.90;6.10;;;;;;;13.49;100.00;100970.81;7394499;19;20419;-45
2022/10/25 10:15:34;;;;;;;8.70;3.60;;;;;;;13.42;100.00;100970.53;7390536;19;20404;-47
2022/10/25 10:18:37;;;;;;;20.60;6.10;;;;;;;13.48;100.00;100970.78;7395829;19;20423;-47
2022/10/25 10:21:11;;;;;;;12.70;5.07;;;;;;;13.50;100.00;100979.50;7391407;19;20436;-49
2022/10/25 10:23:48;;;;;;;9.93;4.23;;;;;;;13.53;100.00;100979.59;7392636;19;20446;-47
2022/10/25 10:26:26;;;;;;;13.17;4.33;;;;;;;13.54;100.00;100978.75;7391711;19;20423;-51
2022/10/25 10:29:05;;;;;;;9.57;4.13;;;;;;;13.63;100.00;100983.38;7394804;19;20370;-46
2022/10/25 10:31:38;;;;;;;11.60;4.67;;;;;;;13.68;100.00;100983.53;7390436;19;20417;-51
2022/10/25 10:34:11;;;;;;;10.07;3.50;;;;;;;13.63;100.00;100992.03;7394892;19;20403;-48
2022/10/25 10:36:41;;;;;;;14.80;4.17;;;;;;;13.60;100.00;100984.13;7394362;19;20400;-48
2022/10/25 10:39:22;;;;;;;16.73;6.20;;;;;;;13.67;100.00;100987.81;7393232;19;20385;-51
2022/10/25 10:42:02;;;;;;;22.17;5.77;;;;;;;13.68;100.00;100993.91;7392959;19;20435;-51
2022/10/25 10:44:33;;;;;;;13.60;4.63;;;;;;;13.67;100.00;100997.31;7394950;19;20385;-53
2022/10/25 10:47:04;;;;;;;13.00;4.90;;;;;;;13.64;100.00;100991.19;7387407;19;20433;-48
2022/10/25 10:49:36;;;;;;;20.00;5.23;;;;;;;13.68;100.00;101004.28;7396215;19;20373;-50
2022/10/25 10:52:06;;;;;;;12.30;4.90;;;;;;;13.80;100.00;100994.31;7386750;19;20434;-49
2022/10/25 10:54:38;;;;;;;8.50;4.00;;;;;;;13.92;100.00;100993.81;7392060;19;20375;-52
2022/10/25 10:57:23;;;;;;;16.27;4.80;;;;;;;13.94;100.00;100996.47;7384201;19;20442;-51
2022/10/25 10:59:55;;;;;;;19.20;5.40;;;;;;;13.99;100.00;100993.16;7395046;19;20406;-51
2022/10/25 11:02:28;;;;;;;15.27;5.50;;;;;;;14.09;100.00;100994.31;7393235;19;20802;-51
2022/10/25 11:04:58;;;;;;;15.93;5.90;;;;;;;14.22;100.00;100997.31;7388957;19;20392;-51
2022/10/25 11:07:33;;;;;;;19.63;3.63;;;;;;;14.10;100.00;101003.00;7393337;19;20394;-49
2022/10/25 11:10:22;;;;;;;9.83;3.87;;;;;;;14.15;100.00;101006.63;7390527;19;20413;-51
2022/10/25 11:13:18;;;;;;;11.53;4.40;;;;;;;14.37;100.00;101005.56;7395089;19;20449;-50
2022/10/25 11:16:17;;;;;;;19.90;6.50;;;;;;;14.37;100.00;101008.16;7390229;19;20418;-51
2022/10/25 11:18:52;;;;;;;12.23;4.30;;;;;;;14.15;100.00;101017.88;7390720;19;20936;-50
2022/10/25 11:21:41;;;;;;;12.90;4.90;;;;;;;14.12;100.00;101019.50;7388720;19;20445;-47
2022/10/25 11:24:19;;;;;;;8.17;4.00;;;;;;;14.39;100.00;101024.66;7390191;19;20386;-51
2022/10/25 11:26:57;;;;;;;13.47;3.40;;;;;;;14.40;100.00;101016.03;7386409;19;20446;-52
2022/10/25 11:29:41;;;;;;;12.40;3.60;;;;;;;14.43;100.00;101029.13;7390105;19;20390;-49
2022/10/25 11:32:30;;;;;;;9.10;3.50;;;;;;;14.66;100.00;101034.09;7386588;19;20441;-51